sensor_id;sensor_type;location;lat;lon;timestamp;P1;durP1;ratioP1;P2;durP2;ratioP2
13083;SDS011;6608;48.790;9.198;2024-03-23T00:55:36;158.03;;;65.27;;
13083;SDS011;6608;48.790;9.198;2024-03-23T00:58:02;154.37;;;65.20;;
13083;SDS011;6608;48.790;9.198;2024-03-23T01:00:29;151.50;;;63.40;;
13083;SDS011;6608;48.790;9.198;2024-03-23T01:02:56;155.80;;;65.77;;
13083;SDS011;6608;48.790;9.198;2024-03-23T01:05:22;152.93;;;64.70;;
13083;SDS011;6608;48.790;9.198;2024-03-23T01:07:48;158.50;;;64.50;;
13083;SDS011;6608;48.790;9.198;2024-03-23T01:10:13;156.83;;;64.97;;
13083;SDS011;6608;48.790;9.198;2024-03-23T01:12:40;150.83;;;63.57;;
13083;SDS011;6608;48.790;9.198;2024-03-23T01:15:05;146.80;;;62.60;;
13083;SDS011;6608;48.790;9.198;2024-03-23T01:17:33;155.40;;;64.50;;
13083;SDS011;6608;48.790;9.198;2024-03-23T01:19:58;155.43;;;63.17;;
13083;SDS011;6608;48.790;9.198;2024-03-23T01:22:25;150.43;;;63.90;;
13083;SDS011;6608;48.790;9.198;2024-03-23T01:24:50;149.60;;;63.30;;
13083;SDS011;6608;48.790;9.198;2024-03-23T01:27:16;151.60;;;63.47;;
13083;SDS011;6608;48.790;9.198;2024-03-23T01:29:42;151.97;;;63.90;;
13083;SDS011;6608;48.790;9.198;2024-03-23T01:32:08;152.97;;;64.53;;
13083;SDS011;6608;48.790;9.198;2024-03-23T01:34:35;152.17;;;64.17;;
13083;SDS011;6608;48.790;9.198;2024-03-23T01:37:02;150.83;;;63.10;;
13083;SDS011;6608;48.790;9.198;2024-03-23T01:39:27;153.43;;;64.73;;
13083;SDS011;6608;48.790;9.198;2024-03-23T01:41:53;151.00;;;63.47;;
13083;SDS011;6608;48.790;9.198;2024-03-23T01:44:19;153.07;;;64.60;;
13083;SDS011;6608;48.790;9.198;2024-03-23T01:46:45;152.43;;;63.90;;
13083;SDS011;6608;48.790;9.198;2024-03-23T01:49:11;155.30;;;64.33;;
13083;SDS011;6608;48.790;9.198;2024-03-23T01:51:39;152.57;;;63.80;;
13083;SDS011;6608;48.790;9.198;2024-03-23T01:54:04;146.17;;;60.77;;
13083;SDS011;6608;48.790;9.198;2024-03-23T01:56:32;145.27;;;60.77;;
13083;SDS011;6608;48.790;9.198;2024-03-23T01:58:58;148.17;;;61.80;;
13083;SDS011;6608;48.790;9.198;2024-03-23T02:01:25;148.50;;;61.87;;
13083;SDS011;6608;48.790;9.198;2024-03-23T02:03:51;150.17;;;61.80;;
13083;SDS011;6608;48.790;9.198;2024-03-23T02:06:17;147.17;;;61.47;;
13083;SDS011;6608;48.790;9.198;2024-03-23T02:08:44;146.07;;;61.00;;
13083;SDS011;6608;48.790;9.198;2024-03-23T02:11:10;147.90;;;61.80;;
13083;SDS011;6608;48.790;9.198;2024-03-23T02:13:36;148.50;;;61.07;;
13083;SDS011;6608;48.790;9.198;2024-03-23T02:16:02;146.97;;;61.47;;
13083;SDS011;6608;48.790;9.198;2024-03-23T02:18:28;145.30;;;61.23;;
13083;SDS011;6608;48.790;9.198;2024-03-23T02:20:55;147.30;;;61.43;;
13083;SDS011;6608;48.790;9.198;2024-03-23T02:23:22;147.73;;;61.33;;
13083;SDS011;6608;48.790;9.198;2024-03-23T02:25:49;143.57;;;60.10;;
13083;SDS011;6608;48.790;9.198;2024-03-23T02:28:14;146.10;;;61.07;;
13083;SDS011;6608;48.790;9.198;2024-03-23T02:30:42;148.47;;;61.90;;
13083;SDS011;6608;48.790;9.198;2024-03-23T02:33:07;148.20;;;61.67;;
13083;SDS011;6608;48.790;9.198;2024-03-23T02:35:33;150.87;;;62.50;;
13083;SDS011;6608;48.790;9.198;2024-03-23T02:37:59;147.77;;;61.43;;
13083;SDS011;6608;48.790;9.198;2024-03-23T02:40:27;148.27;;;62.07;;
13083;SDS011;6608;48.790;9.198;2024-03-23T02:42:52;151.60;;;62.27;;
13083;SDS011;6608;48.790;9.198;2024-03-23T02:45:19;149.00;;;61.87;;
13083;SDS011;6608;48.790;9.198;2024-03-23T02:47:44;148.10;;;61.70;;
13083;SDS011;6608;48.790;9.198;2024-03-23T02:50:11;147.60;;;61.83;;
13083;SDS011;6608;48.790;9.198;2024-03-23T02:52:36;145.63;;;60.43;;
13083;SDS011;6608;48.790;9.198;2024-03-23T02:55:03;145.23;;;61.13;;
13083;SDS011;6608;48.790;9.198;2024-03-23T02:57:30;147.97;;;61.33;;
13083;SDS011;6608;48.790;9.198;2024-03-23T02:59:56;146.97;;;61.53;;
13083;SDS011;6608;48.790;9.198;2024-03-23T03:02:21;143.30;;;60.10;;
13083;SDS011;6608;48.790;9.198;2024-03-23T03:04:48;147.23;;;60.97;;
13083;SDS011;6608;48.790;9.198;2024-03-23T03:07:14;147.23;;;61.60;;
13083;SDS011;6608;48.790;9.198;2024-03-23T03:09:40;148.70;;;62.20;;
13083;SDS011;6608;48.790;9.198;2024-03-23T03:12:05;149.53;;;61.00;;
13083;SDS011;6608;48.790;9.198;2024-03-23T03:14:33;150.33;;;60.93;;
13083;SDS011;6608;48.790;9.198;2024-03-23T03:16:59;146.73;;;61.10;;
13083;SDS011;6608;48.790;9.198;2024-03-23T03:19:25;143.37;;;60.37;;
13083;SDS011;6608;48.790;9.198;2024-03-23T03:21:50;146.30;;;61.17;;
13083;SDS011;6608;48.790;9.198;2024-03-23T03:24:17;148.03;;;61.40;;
13083;SDS011;6608;48.790;9.198;2024-03-23T03:26:42;146.47;;;61.00;;
13083;SDS011;6608;48.790;9.198;2024-03-23T03:29:09;143.87;;;60.70;;
13083;SDS011;6608;48.790;9.198;2024-03-23T03:31:36;149.23;;;62.07;;
13083;SDS011;6608;48.790;9.198;2024-03-23T03:34:02;147.73;;;61.80;;
13083;SDS011;6608;48.790;9.198;2024-03-23T03:36:27;147.90;;;61.40;;
13083;SDS011;6608;48.790;9.198;2024-03-23T03:38:54;146.17;;;61.20;;
13083;SDS011;6608;48.790;9.198;2024-03-23T03:41:19;148.20;;;61.33;;
13083;SDS011;6608;48.790;9.198;2024-03-23T03:43:45;145.00;;;60.97;;
13083;SDS011;6608;48.790;9.198;2024-03-23T03:46:11;146.40;;;61.37;;
13083;SDS011;6608;48.790;9.198;2024-03-23T03:48:39;143.77;;;60.47;;
13083;SDS011;6608;48.790;9.198;2024-03-23T03:51:04;143.20;;;60.30;;
13083;SDS011;6608;48.790;9.198;2024-03-23T03:53:30;149.27;;;61.23;;
13083;SDS011;6608;48.790;9.198;2024-03-23T03:55:56;142.40;;;59.93;;
13083;SDS011;6608;48.790;9.198;2024-03-23T03:58:22;148.33;;;61.50;;
13083;SDS011;6608;48.790;9.198;2024-03-23T04:00:47;144.77;;;60.23;;
13083;SDS011;6608;48.790;9.198;2024-03-23T04:03:14;146.50;;;61.20;;
13083;SDS011;6608;48.790;9.198;2024-03-23T04:05:41;146.50;;;61.57;;
13083;SDS011;6608;48.790;9.198;2024-03-23T04:08:07;143.43;;;60.07;;
13083;SDS011;6608;48.790;9.198;2024-03-23T04:10:33;142.90;;;60.27;;
13083;SDS011;6608;48.790;9.198;2024-03-23T04:12:59;143.90;;;60.30;;
13083;SDS011;6608;48.790;9.198;2024-03-23T04:15:26;144.67;;;60.53;;
13083;SDS011;6608;48.790;9.198;2024-03-23T04:17:52;146.43;;;61.10;;
13083;SDS011;6608;48.790;9.198;2024-03-23T04:20:18;145.63;;;61.17;;
13083;SDS011;6608;48.790;9.198;2024-03-23T04:22:45;144.60;;;60.63;;
13083;SDS011;6608;48.790;9.198;2024-03-23T04:25:12;146.73;;;61.03;;
13083;SDS011;6608;48.790;9.198;2024-03-23T04:27:38;147.03;;;61.10;;
13083;SDS011;6608;48.790;9.198;2024-03-23T04:30:04;145.47;;;60.83;;
13083;SDS011;6608;48.790;9.198;2024-03-23T04:32:35;140.93;;;59.67;;
13083;SDS011;6608;48.790;9.198;2024-03-23T04:35:00;144.80;;;60.90;;
13083;SDS011;6608;48.790;9.198;2024-03-23T04:37:27;149.17;;;61.43;;
13083;SDS011;6608;48.790;9.198;2024-03-23T04:39:55;149.20;;;61.73;;
13083;SDS011;6608;48.790;9.198;2024-03-23T04:42:22;144.43;;;60.20;;
13083;SDS011;6608;48.790;9.198;2024-03-23T04:44:48;143.73;;;60.17;;
13083;SDS011;6608;48.790;9.198;2024-03-23T04:47:14;148.67;;;61.77;;
13083;SDS011;6608;48.790;9.198;2024-03-23T04:49:41;145.47;;;61.63;;
13083;SDS011;6608;48.790;9.198;2024-03-23T04:52:08;149.47;;;61.60;;
13083;SDS011;6608;48.790;9.198;2024-03-23T04:54:33;152.17;;;62.33;;
13083;SDS011;6608;48.790;9.198;2024-03-23T04:57:01;148.20;;;61.77;;
13083;SDS011;6608;48.790;9.198;2024-03-23T04:59:26;145.63;;;61.30;;
13083;SDS011;6608;48.790;9.198;2024-03-23T05:01:53;145.37;;;61.70;;
13083;SDS011;6608;48.790;9.198;2024-03-23T05:04:18;146.33;;;61.53;;
13083;SDS011;6608;48.790;9.198;2024-03-23T05:06:44;146.53;;;62.53;;
13083;SDS011;6608;48.790;9.198;2024-03-23T05:09:10;147.23;;;62.73;;
13083;SDS011;6608;48.790;9.198;2024-03-23T05:11:36;146.03;;;62.07;;
13083;SDS011;6608;48.790;9.198;2024-03-23T05:14:03;144.73;;;62.23;;
13083;SDS011;6608;48.790;9.198;2024-03-23T05:16:30;150.40;;;63.80;;
13083;SDS011;6608;48.790;9.198;2024-03-23T05:18:55;150.23;;;64.03;;
13083;SDS011;6608;48.790;9.198;2024-03-23T05:21:21;152.43;;;64.77;;
13083;SDS011;6608;48.790;9.198;2024-03-23T05:23:47;153.00;;;66.03;;
13083;SDS011;6608;48.790;9.198;2024-03-23T05:26:13;159.13;;;66.10;;
13083;SDS011;6608;48.790;9.198;2024-03-23T05:28:39;158.80;;;67.57;;
13083;SDS011;6608;48.790;9.198;2024-03-23T05:31:07;153.37;;;66.67;;
13083;SDS011;6608;48.790;9.198;2024-03-23T05:33:34;153.83;;;64.30;;
13083;SDS011;6608;48.790;9.198;2024-03-23T05:36:01;150.87;;;65.77;;
13083;SDS011;6608;48.790;9.198;2024-03-23T05:38:26;151.43;;;65.13;;
13083;SDS011;6608;48.790;9.198;2024-03-23T05:40:53;153.77;;;66.93;;
13083;SDS011;6608;48.790;9.198;2024-03-23T05:43:18;152.23;;;66.07;;
13083;SDS011;6608;48.790;9.198;2024-03-23T05:45:45;156.23;;;67.57;;
13083;SDS011;6608;48.790;9.198;2024-03-23T05:48:12;155.23;;;67.27;;
13083;SDS011;6608;48.790;9.198;2024-03-23T05:50:38;155.37;;;66.70;;
13083;SDS011;6608;48.790;9.198;2024-03-23T05:53:04;156.40;;;67.50;;
13083;SDS011;6608;48.790;9.198;2024-03-23T05:55:30;152.73;;;65.20;;
13083;SDS011;6608;48.790;9.198;2024-03-23T05:57:57;151.17;;;63.93;;
13083;SDS011;6608;48.790;9.198;2024-03-23T06:00:25;153.73;;;64.23;;
13083;SDS011;6608;48.790;9.198;2024-03-23T06:02:51;150.33;;;63.53;;
13083;SDS011;6608;48.790;9.198;2024-03-23T06:05:19;149.23;;;62.37;;
13083;SDS011;6608;48.790;9.198;2024-03-23T06:07:44;147.50;;;61.43;;
13083;SDS011;6608;48.790;9.198;2024-03-23T06:10:11;148.53;;;62.17;;
13083;SDS011;6608;48.790;9.198;2024-03-23T06:12:36;145.17;;;60.17;;
13083;SDS011;6608;48.790;9.198;2024-03-23T06:15:02;143.93;;;60.07;;
13083;SDS011;6608;48.790;9.198;2024-03-23T06:17:28;140.57;;;58.93;;
13083;SDS011;6608;48.790;9.198;2024-03-23T06:19:54;144.13;;;60.17;;
13083;SDS011;6608;48.790;9.198;2024-03-23T06:22:21;143.73;;;60.03;;
13083;SDS011;6608;48.790;9.198;2024-03-23T06:24:47;145.87;;;60.87;;
13083;SDS011;6608;48.790;9.198;2024-03-23T06:27:13;145.37;;;60.80;;
13083;SDS011;6608;48.790;9.198;2024-03-23T06:29:39;142.83;;;59.70;;
13083;SDS011;6608;48.790;9.198;2024-03-23T06:32:05;140.50;;;59.13;;
13083;SDS011;6608;48.790;9.198;2024-03-23T06:34:31;142.10;;;59.33;;
13083;SDS011;6608;48.790;9.198;2024-03-23T06:36:56;142.03;;;59.00;;
13083;SDS011;6608;48.790;9.198;2024-03-23T06:39:24;145.43;;;60.07;;
13083;SDS011;6608;48.790;9.198;2024-03-23T06:41:53;141.93;;;58.57;;
13083;SDS011;6608;48.790;9.198;2024-03-23T06:44:20;144.87;;;59.93;;
13083;SDS011;6608;48.790;9.198;2024-03-23T06:46:45;147.57;;;60.43;;
13083;SDS011;6608;48.790;9.198;2024-03-23T06:49:12;142.97;;;59.23;;
13083;SDS011;6608;48.790;9.198;2024-03-23T06:51:38;139.13;;;58.13;;
13083;SDS011;6608;48.790;9.198;2024-03-23T06:54:04;142.07;;;59.03;;
13083;SDS011;6608;48.790;9.198;2024-03-23T06:56:31;142.27;;;58.80;;
13083;SDS011;6608;48.790;9.198;2024-03-23T06:58:58;138.43;;;57.67;;
13083;SDS011;6608;48.790;9.198;2024-03-23T07:01:23;139.10;;;57.83;;
13083;SDS011;6608;48.790;9.198;2024-03-23T07:03:50;134.93;;;56.73;;
13083;SDS011;6608;48.790;9.198;2024-03-23T07:06:15;143.40;;;59.00;;
13083;SDS011;6608;48.790;9.198;2024-03-23T07:08:42;140.57;;;57.57;;
13083;SDS011;6608;48.790;9.198;2024-03-23T07:11:07;142.90;;;59.03;;
13083;SDS011;6608;48.790;9.198;2024-03-23T07:13:35;140.90;;;58.17;;
13083;SDS011;6608;48.790;9.198;2024-03-23T07:16:00;140.67;;;57.93;;
13083;SDS011;6608;48.790;9.198;2024-03-23T07:18:27;141.23;;;58.37;;
13083;SDS011;6608;48.790;9.198;2024-03-23T07:20:53;138.60;;;57.53;;
13083;SDS011;6608;48.790;9.198;2024-03-23T07:23:20;141.70;;;57.97;;
13083;SDS011;6608;48.790;9.198;2024-03-23T07:25:45;143.20;;;59.07;;
13083;SDS011;6608;48.790;9.198;2024-03-23T07:28:11;140.03;;;58.10;;
13083;SDS011;6608;48.790;9.198;2024-03-23T07:30:38;142.17;;;57.60;;
13083;SDS011;6608;48.790;9.198;2024-03-23T07:33:05;143.03;;;58.90;;
13083;SDS011;6608;48.790;9.198;2024-03-23T07:35:30;143.40;;;58.73;;
13083;SDS011;6608;48.790;9.198;2024-03-23T07:37:56;139.97;;;57.70;;
13083;SDS011;6608;48.790;9.198;2024-03-23T07:40:22;143.20;;;58.87;;
13083;SDS011;6608;48.790;9.198;2024-03-23T07:42:48;141.80;;;57.83;;
13083;SDS011;6608;48.790;9.198;2024-03-23T07:45:13;144.00;;;59.20;;
13083;SDS011;6608;48.790;9.198;2024-03-23T07:47:41;141.30;;;58.67;;
13083;SDS011;6608;48.790;9.198;2024-03-23T07:50:07;147.40;;;60.13;;
13083;SDS011;6608;48.790;9.198;2024-03-23T07:52:33;138.73;;;57.70;;
13083;SDS011;6608;48.790;9.198;2024-03-23T07:54:59;142.03;;;58.70;;
13083;SDS011;6608;48.790;9.198;2024-03-23T07:57:25;142.70;;;58.10;;
13083;SDS011;6608;48.790;9.198;2024-03-23T07:59:50;140.43;;;57.87;;
13083;SDS011;6608;48.790;9.198;2024-03-23T08:02:17;142.43;;;58.70;;
13083;SDS011;6608;48.790;9.198;2024-03-23T08:04:44;137.57;;;57.17;;
13083;SDS011;6608;48.790;9.198;2024-03-23T08:07:10;140.63;;;58.27;;
13083;SDS011;6608;48.790;9.198;2024-03-23T08:09:35;139.73;;;58.10;;
13083;SDS011;6608;48.790;9.198;2024-03-23T08:12:02;138.37;;;57.63;;
13083;SDS011;6608;48.790;9.198;2024-03-23T08:14:27;140.67;;;58.43;;
13083;SDS011;6608;48.790;9.198;2024-03-23T08:16:54;142.60;;;59.03;;
13083;SDS011;6608;48.790;9.198;2024-03-23T08:19:19;138.10;;;57.47;;
13083;SDS011;6608;48.790;9.198;2024-03-23T08:21:47;140.07;;;57.90;;
13083;SDS011;6608;48.790;9.198;2024-03-23T08:24:14;142.93;;;59.20;;
13083;SDS011;6608;48.790;9.198;2024-03-23T08:26:40;136.40;;;57.20;;
13083;SDS011;6608;48.790;9.198;2024-03-23T08:29:05;142.70;;;58.73;;
13083;SDS011;6608;48.790;9.198;2024-03-23T08:31:32;140.27;;;58.30;;
13083;SDS011;6608;48.790;9.198;2024-03-23T08:33:57;137.73;;;57.57;;
13083;SDS011;6608;48.790;9.198;2024-03-23T08:36:23;142.47;;;58.63;;
13083;SDS011;6608;48.790;9.198;2024-03-23T08:38:50;137.80;;;57.43;;
13083;SDS011;6608;48.790;9.198;2024-03-23T08:41:18;142.57;;;58.97;;
13083;SDS011;6608;48.790;9.198;2024-03-23T08:43:44;138.30;;;57.60;;
13083;SDS011;6608;48.790;9.198;2024-03-23T08:46:11;135.97;;;56.77;;
13083;SDS011;6608;48.790;9.198;2024-03-23T08:48:37;138.17;;;57.50;;
13083;SDS011;6608;48.790;9.198;2024-03-23T08:51:04;136.37;;;57.30;;
13083;SDS011;6608;48.790;9.198;2024-03-23T08:53:29;141.30;;;58.73;;
13083;SDS011;6608;48.790;9.198;2024-03-23T08:55:57;140.67;;;58.73;;
13083;SDS011;6608;48.790;9.198;2024-03-23T08:58:23;141.50;;;58.27;;
13083;SDS011;6608;48.790;9.198;2024-03-23T09:00:50;141.33;;;58.80;;
13083;SDS011;6608;48.790;9.198;2024-03-23T09:03:15;144.30;;;59.40;;
13083;SDS011;6608;48.790;9.198;2024-03-23T09:05:42;142.10;;;58.70;;
13083;SDS011;6608;48.790;9.198;2024-03-23T09:08:07;142.43;;;58.27;;
13083;SDS011;6608;48.790;9.198;2024-03-23T09:10:35;140.57;;;58.00;;
13083;SDS011;6608;48.790;9.198;2024-03-23T09:13:03;139.60;;;58.03;;
13083;SDS011;6608;48.790;9.198;2024-03-23T09:15:29;140.27;;;57.83;;
13083;SDS011;6608;48.790;9.198;2024-03-23T09:17:56;140.10;;;58.47;;
13083;SDS011;6608;48.790;9.198;2024-03-23T09:20:22;139.83;;;58.30;;
13083;SDS011;6608;48.790;9.198;2024-03-23T09:22:48;138.00;;;57.97;;
13083;SDS011;6608;48.790;9.198;2024-03-23T09:25:14;140.60;;;58.43;;
13083;SDS011;6608;48.790;9.198;2024-03-23T09:27:40;138.80;;;58.40;;
13083;SDS011;6608;48.790;9.198;2024-03-23T09:30:08;142.83;;;59.57;;
13083;SDS011;6608;48.790;9.198;2024-03-23T09:32:35;143.73;;;59.67;;
13083;SDS011;6608;48.790;9.198;2024-03-23T09:35:01;141.10;;;58.93;;
13083;SDS011;6608;48.790;9.198;2024-03-23T09:37:27;142.27;;;59.20;;
13083;SDS011;6608;48.790;9.198;2024-03-23T09:39:53;141.50;;;59.20;;
13083;SDS011;6608;48.790;9.198;2024-03-23T09:42:18;140.63;;;58.53;;
13083;SDS011;6608;48.790;9.198;2024-03-23T09:44:45;147.70;;;60.47;;
13083;SDS011;6608;48.790;9.198;2024-03-23T09:47:12;150.83;;;60.57;;
13083;SDS011;6608;48.790;9.198;2024-03-23T09:49:38;153.53;;;61.00;;
13083;SDS011;6608;48.790;9.198;2024-03-23T09:52:05;143.87;;;59.57;;
13083;SDS011;6608;48.790;9.198;2024-03-23T09:54:31;142.77;;;59.13;;
13083;SDS011;6608;48.790;9.198;2024-03-23T09:56:57;146.20;;;60.13;;
13083;SDS011;6608;48.790;9.198;2024-03-23T09:59:24;149.87;;;61.03;;
13083;SDS011;6608;48.790;9.198;2024-03-23T10:01:51;146.70;;;60.07;;
13083;SDS011;6608;48.790;9.198;2024-03-23T10:07:01;149.87;;;61.63;;
13083;SDS011;6608;48.790;9.198;2024-03-23T10:09:36;150.17;;;61.77;;
13083;SDS011;6608;48.790;9.198;2024-03-23T10:12:07;148.47;;;61.27;;
13083;SDS011;6608;48.790;9.198;2024-03-23T10:14:34;151.17;;;61.63;;
13083;SDS011;6608;48.790;9.198;2024-03-23T10:17:06;158.77;;;62.90;;
13083;SDS011;6608;48.790;9.198;2024-03-23T10:19:38;161.93;;;63.93;;
13083;SDS011;6608;48.790;9.198;2024-03-23T10:22:05;162.13;;;64.20;;
13083;SDS011;6608;48.790;9.198;2024-03-23T10:24:32;162.67;;;64.50;;
13083;SDS011;6608;48.790;9.198;2024-03-23T10:26:58;161.97;;;64.33;;
13083;SDS011;6608;48.790;9.198;2024-03-23T10:29:24;161.40;;;64.37;;
13083;SDS011;6608;48.790;9.198;2024-03-23T10:31:52;163.30;;;64.53;;
13083;SDS011;6608;48.790;9.198;2024-03-23T10:34:24;160.30;;;64.87;;
13083;SDS011;6608;48.790;9.198;2024-03-23T10:36:50;161.23;;;64.60;;
13083;SDS011;6608;48.790;9.198;2024-03-23T10:39:19;160.83;;;64.10;;
13083;SDS011;6608;48.790;9.198;2024-03-23T10:41:46;156.50;;;62.93;;
13083;SDS011;6608;48.790;9.198;2024-03-23T10:44:15;157.50;;;63.40;;
13083;SDS011;6608;48.790;9.198;2024-03-23T10:46:41;159.90;;;64.23;;
13083;SDS011;6608;48.790;9.198;2024-03-23T10:49:08;162.00;;;63.63;;
13083;SDS011;6608;48.790;9.198;2024-03-23T10:51:33;157.53;;;62.70;;
13083;SDS011;6608;48.790;9.198;2024-03-23T10:54:00;157.83;;;62.87;;
13083;SDS011;6608;48.790;9.198;2024-03-23T10:56:29;153.10;;;61.60;;
13083;SDS011;6608;48.790;9.198;2024-03-23T10:58:58;155.10;;;61.93;;
13083;SDS011;6608;48.790;9.198;2024-03-23T11:01:24;150.07;;;60.70;;
13083;SDS011;6608;48.790;9.198;2024-03-23T11:03:51;150.87;;;61.37;;
13083;SDS011;6608;48.790;9.198;2024-03-23T11:08:58;150.70;;;61.80;;
13083;SDS011;6608;48.790;9.198;2024-03-23T11:11:23;146.17;;;59.27;;
13083;SDS011;6608;48.790;9.198;2024-03-23T11:13:53;144.83;;;59.47;;
13083;SDS011;6608;48.790;9.198;2024-03-23T11:16:21;143.17;;;58.60;;
13083;SDS011;6608;48.790;9.198;2024-03-23T11:18:48;139.67;;;58.07;;
13083;SDS011;6608;48.790;9.198;2024-03-23T11:21:51;138.37;;;57.87;;
13083;SDS011;6608;48.790;9.198;2024-03-23T11:24:12;140.53;;;58.47;;
13083;SDS011;6608;48.790;9.198;2024-03-23T11:26:38;141.17;;;58.93;;
13083;SDS011;6608;48.790;9.198;2024-03-23T11:29:12;141.03;;;58.93;;
13083;SDS011;6608;48.790;9.198;2024-03-23T11:31:38;143.13;;;59.60;;
13083;SDS011;6608;48.790;9.198;2024-03-23T11:34:05;142.77;;;59.37;;
13083;SDS011;6608;48.790;9.198;2024-03-23T11:36:31;148.60;;;60.97;;
13083;SDS011;6608;48.790;9.198;2024-03-23T11:38:58;148.30;;;60.87;;
13083;SDS011;6608;48.790;9.198;2024-03-23T11:41:23;147.53;;;60.17;;
13083;SDS011;6608;48.790;9.198;2024-03-23T11:43:50;149.23;;;61.00;;
13083;SDS011;6608;48.790;9.198;2024-03-23T11:46:23;141.00;;;58.57;;
13083;SDS011;6608;48.790;9.198;2024-03-23T11:48:49;152.23;;;62.20;;
13083;SDS011;6608;48.790;9.198;2024-03-23T11:51:15;155.30;;;62.73;;
13083;SDS011;6608;48.790;9.198;2024-03-23T11:53:43;150.60;;;61.67;;
13083;SDS011;6608;48.790;9.198;2024-03-23T11:56:08;152.80;;;62.13;;
13083;SDS011;6608;48.790;9.198;2024-03-23T11:58:35;153.57;;;62.53;;
13083;SDS011;6608;48.790;9.198;2024-03-23T12:01:01;154.37;;;61.53;;
13083;SDS011;6608;48.790;9.198;2024-03-23T12:03:29;150.50;;;61.00;;
13083;SDS011;6608;48.790;9.198;2024-03-23T12:05:55;153.90;;;62.00;;
13083;SDS011;6608;48.790;9.198;2024-03-23T12:08:22;153.03;;;61.40;;
13083;SDS011;6608;48.790;9.198;2024-03-23T12:10:49;150.47;;;61.20;;
13083;SDS011;6608;48.790;9.198;2024-03-23T12:13:16;149.27;;;60.80;;
13083;SDS011;6608;48.790;9.198;2024-03-23T12:15:42;147.80;;;59.83;;
13083;SDS011;6608;48.790;9.198;2024-03-23T12:18:09;150.60;;;61.13;;
13083;SDS011;6608;48.790;9.198;2024-03-23T12:20:37;149.87;;;61.30;;
13083;SDS011;6608;48.790;9.198;2024-03-23T12:23:07;149.17;;;60.67;;
13083;SDS011;6608;48.790;9.198;2024-03-23T12:25:32;150.37;;;60.63;;
13083;SDS011;6608;48.790;9.198;2024-03-23T12:27:59;149.43;;;60.17;;
13083;SDS011;6608;48.790;9.198;2024-03-23T12:30:24;155.93;;;62.33;;
13083;SDS011;6608;48.790;9.198;2024-03-23T12:32:51;146.67;;;60.07;;
13083;SDS011;6608;48.790;9.198;2024-03-23T12:35:16;148.60;;;60.60;;
13083;SDS011;6608;48.790;9.198;2024-03-23T12:37:44;156.27;;;62.77;;
13083;SDS011;6608;48.790;9.198;2024-03-23T12:40:10;150.00;;;61.03;;
13083;SDS011;6608;48.790;9.198;2024-03-23T12:42:36;148.17;;;60.50;;
13083;SDS011;6608;48.790;9.198;2024-03-23T12:45:02;153.63;;;61.83;;
13083;SDS011;6608;48.790;9.198;2024-03-23T12:47:29;154.03;;;62.27;;
13083;SDS011;6608;48.790;9.198;2024-03-23T12:49:55;156.07;;;62.03;;
13083;SDS011;6608;48.790;9.198;2024-03-23T12:52:21;159.53;;;63.50;;
13083;SDS011;6608;48.790;9.198;2024-03-23T12:54:50;155.40;;;62.33;;
13083;SDS011;6608;48.790;9.198;2024-03-23T12:57:16;150.73;;;61.07;;
13083;SDS011;6608;48.790;9.198;2024-03-23T12:59:42;152.77;;;61.10;;
13083;SDS011;6608;48.790;9.198;2024-03-23T13:02:08;151.13;;;61.07;;
13083;SDS011;6608;48.790;9.198;2024-03-23T13:04:34;147.90;;;60.77;;
13083;SDS011;6608;48.790;9.198;2024-03-23T13:07:01;149.20;;;60.83;;
13083;SDS011;6608;48.790;9.198;2024-03-23T13:09:26;153.57;;;61.90;;
13083;SDS011;6608;48.790;9.198;2024-03-23T13:11:54;148.03;;;62.00;;
13083;SDS011;6608;48.790;9.198;2024-03-23T13:14:21;154.67;;;62.77;;
13083;SDS011;6608;48.790;9.198;2024-03-23T13:16:48;161.97;;;64.93;;
13083;SDS011;6608;48.790;9.198;2024-03-23T13:19:14;155.77;;;63.20;;
13083;SDS011;6608;48.790;9.198;2024-03-23T13:21:40;158.00;;;63.30;;
13083;SDS011;6608;48.790;9.198;2024-03-23T13:24:06;160.60;;;64.43;;
13083;SDS011;6608;48.790;9.198;2024-03-23T13:26:32;156.67;;;63.23;;
13083;SDS011;6608;48.790;9.198;2024-03-23T13:29:01;158.07;;;64.07;;
13083;SDS011;6608;48.790;9.198;2024-03-23T13:31:26;165.03;;;63.83;;
13083;SDS011;6608;48.790;9.198;2024-03-23T13:33:52;154.40;;;61.97;;
13083;SDS011;6608;48.790;9.198;2024-03-23T13:36:18;156.90;;;63.50;;
13083;SDS011;6608;48.790;9.198;2024-03-23T13:38:44;154.13;;;62.50;;
13083;SDS011;6608;48.790;9.198;2024-03-23T13:41:09;158.27;;;63.33;;
13083;SDS011;6608;48.790;9.198;2024-03-23T13:43:37;159.50;;;62.33;;
13083;SDS011;6608;48.790;9.198;2024-03-23T13:46:04;154.27;;;62.17;;
13083;SDS011;6608;48.790;9.198;2024-03-23T13:48:30;151.83;;;60.93;;
13083;SDS011;6608;48.790;9.198;2024-03-23T13:50:59;147.73;;;59.87;;
13083;SDS011;6608;48.790;9.198;2024-03-23T13:53:26;152.43;;;61.17;;
13083;SDS011;6608;48.790;9.198;2024-03-23T13:55:51;152.97;;;61.63;;
13083;SDS011;6608;48.790;9.198;2024-03-23T13:58:18;151.63;;;61.20;;
13083;SDS011;6608;48.790;9.198;2024-03-23T14:00:43;154.63;;;61.03;;
13083;SDS011;6608;48.790;9.198;2024-03-23T14:03:11;150.40;;;60.43;;
13083;SDS011;6608;48.790;9.198;2024-03-23T14:05:37;151.87;;;60.67;;
13083;SDS011;6608;48.790;9.198;2024-03-23T14:08:04;150.60;;;60.63;;
13083;SDS011;6608;48.790;9.198;2024-03-23T14:10:30;146.50;;;59.60;;
13083;SDS011;6608;48.790;9.198;2024-03-23T14:12:56;144.70;;;59.07;;
13083;SDS011;6608;48.790;9.198;2024-03-23T14:15:21;148.60;;;59.73;;
13083;SDS011;6608;48.790;9.198;2024-03-23T14:17:48;148.47;;;59.70;;
13083;SDS011;6608;48.790;9.198;2024-03-23T14:20:15;146.03;;;58.93;;
13083;SDS011;6608;48.790;9.198;2024-03-23T14:22:42;150.07;;;60.03;;
13083;SDS011;6608;48.790;9.198;2024-03-23T14:25:08;144.00;;;58.53;;
13083;SDS011;6608;48.790;9.198;2024-03-23T14:27:35;141.73;;;58.37;;
13083;SDS011;6608;48.790;9.198;2024-03-23T14:30:02;144.47;;;58.10;;
13083;SDS011;6608;48.790;9.198;2024-03-23T14:32:29;137.97;;;56.60;;
13083;SDS011;6608;48.790;9.198;2024-03-23T14:34:59;138.20;;;56.90;;
13083;SDS011;6608;48.790;9.198;2024-03-23T14:37:25;135.93;;;56.47;;
13083;SDS011;6608;48.790;9.198;2024-03-23T14:39:52;139.90;;;57.47;;
13083;SDS011;6608;48.790;9.198;2024-03-23T14:42:17;137.43;;;57.00;;
13083;SDS011;6608;48.790;9.198;2024-03-23T14:44:43;139.17;;;57.40;;
13083;SDS011;6608;48.790;9.198;2024-03-23T14:47:09;137.37;;;56.90;;
13083;SDS011;6608;48.790;9.198;2024-03-23T14:49:35;139.33;;;57.57;;
13083;SDS011;6608;48.790;9.198;2024-03-23T14:52:01;139.53;;;58.03;;
13083;SDS011;6608;48.790;9.198;2024-03-23T14:54:29;141.27;;;57.33;;
13083;SDS011;6608;48.790;9.198;2024-03-23T14:56:54;139.67;;;58.03;;
13083;SDS011;6608;48.790;9.198;2024-03-23T14:59:23;137.47;;;57.30;;
13083;SDS011;6608;48.790;9.198;2024-03-23T15:01:48;135.83;;;56.90;;
13083;SDS011;6608;48.790;9.198;2024-03-23T15:04:15;135.93;;;56.93;;
13083;SDS011;6608;48.790;9.198;2024-03-23T15:06:40;140.40;;;58.57;;
13083;SDS011;6608;48.790;9.198;2024-03-23T15:09:07;136.83;;;56.90;;
13083;SDS011;6608;48.790;9.198;2024-03-23T15:11:35;138.97;;;57.53;;
13083;SDS011;6608;48.790;9.198;2024-03-23T15:14:01;140.80;;;57.80;;
13083;SDS011;6608;48.790;9.198;2024-03-23T15:16:27;140.70;;;57.40;;